createdAt,value
2023-05-15T00:01:13.136Z,13.02
2023-05-15T00:06:16.040Z,12.98
2023-05-15T00:11:21.339Z,12.98
2023-05-15T00:16:26.020Z,12.93
2023-05-15T00:21:28.954Z,12.87
2023-05-15T00:26:33.132Z,12.84
2023-05-15T00:31:36.023Z,12.82
2023-05-15T00:36:38.941Z,12.75
2023-05-15T00:41:44.002Z,12.76
2023-05-15T00:46:47.455Z,12.70
2023-05-15T00:51:50.481Z,12.65
2023-05-15T00:56:57.986Z,12.60
2023-05-15T01:02:00.859Z,12.55
2023-05-15T01:07:03.744Z,12.54
2023-05-15T01:12:09.279Z,12.52
2023-05-15T01:17:12.153Z,12.53
2023-05-15T01:22:35.096Z,12.50
2023-05-15T01:27:40.985Z,12.47
2023-05-15T01:32:48.538Z,12.48
2023-05-15T01:37:56.372Z,12.53
2023-05-15T01:43:07.040Z,12.54
2023-05-15T01:48:11.115Z,12.60
2023-05-15T01:53:13.956Z,12.55
2023-05-15T01:58:18.658Z,12.55
2023-05-15T02:03:21.757Z,12.51
2023-05-15T02:08:28.716Z,12.57
2023-05-15T02:13:33.251Z,12.64
2023-05-15T02:18:36.092Z,12.62
2023-05-15T02:23:39.243Z,12.55
2023-05-15T02:28:49.423Z,12.58
2023-05-15T02:33:57.285Z,12.66
2023-05-15T02:39:00.685Z,12.70
2023-05-15T02:44:05.109Z,12.72
2023-05-15T02:49:08.435Z,12.62
2023-05-15T02:54:11.549Z,12.55
2023-05-15T02:59:19.774Z,12.50
2023-05-15T03:04:22.745Z,12.35
2023-05-15T03:09:26.396Z,12.29
2023-05-15T03:14:30.696Z,12.20
2023-05-15T03:19:33.513Z,12.07
2023-05-15T03:24:36.447Z,12.08
2023-05-15T03:29:40.967Z,12.04
2023-05-15T03:34:43.788Z,12.02
2023-05-15T03:39:46.733Z,11.99
2023-05-15T03:44:51.196Z,12.01
2023-05-15T03:49:54.341Z,11.99
2023-05-15T03:54:57.194Z,12.06
2023-05-15T04:00:07.375Z,12.13
2023-05-15T04:05:15.160Z,12.16
2023-05-15T04:10:18.089Z,12.21
2023-05-15T04:15:24.236Z,12.22
2023-05-15T04:20:27.435Z,12.34
2023-05-15T04:25:30.935Z,12.49
2023-05-15T04:30:35.126Z,12.58
2023-05-15T04:35:38.014Z,12.65
2023-05-15T04:40:40.903Z,12.70
2023-05-15T04:45:45.090Z,12.70
2023-05-15T04:50:47.934Z,12.77
2023-05-15T04:55:51.339Z,12.91
2023-05-15T05:00:55.513Z,13.03
2023-05-15T05:05:58.371Z,13.05
2023-05-15T05:11:01.244Z,13.21
2023-05-15T05:16:06.067Z,13.33
2023-05-15T05:21:08.995Z,13.35
2023-05-15T05:26:11.860Z,13.37
2023-05-15T05:31:16.413Z,13.38
2023-05-15T05:36:19.306Z,13.33
2023-05-15T05:41:22.667Z,13.29
2023-05-15T05:46:27.391Z,13.39
2023-05-15T05:51:31.856Z,13.60
2023-05-15T05:56:34.826Z,13.65
2023-05-15T06:01:39.128Z,13.85
2023-05-15T06:06:42.026Z,13.90
2023-05-15T06:11:45.435Z,13.84
2023-05-15T06:16:49.738Z,13.77
2023-05-15T06:21:52.623Z,13.85
2023-05-15T06:26:55.795Z,13.94
2023-05-15T06:32:00.238Z,14.03
2023-05-15T06:37:03.199Z,14.10
2023-05-15T06:42:06.809Z,14.27
2023-05-15T06:47:12.462Z,14.56
2023-05-15T06:52:15.499Z,14.81
2023-05-15T06:57:18.598Z,14.69
2023-05-15T07:02:22.850Z,14.58
2023-05-15T07:07:25.832Z,14.71
2023-05-15T07:12:28.668Z,14.92
2023-05-15T07:17:34.390Z,15.20
2023-05-15T07:22:44.583Z,15.43
2023-05-15T07:27:55.141Z,15.53
2023-05-15T07:32:59.453Z,15.52
2023-05-15T07:38:02.487Z,15.38
2023-05-15T07:43:05.367Z,15.29
2023-05-15T07:48:16.649Z,15.20
2023-05-15T07:53:19.736Z,15.08
2023-05-15T07:58:23.322Z,15.14
2023-05-15T08:03:27.582Z,15.15
2023-05-15T08:08:30.860Z,15.10
2023-05-15T08:13:33.688Z,15.17
2023-05-15T08:18:37.983Z,15.19
2023-05-15T08:23:40.836Z,15.16
2023-05-15T08:28:43.618Z,15.25
2023-05-15T08:33:47.788Z,15.13
2023-05-15T08:38:50.591Z,15.16
2023-05-15T08:43:54.559Z,15.14
2023-05-15T08:48:59.504Z,15.10
2023-05-15T08:54:02.623Z,15.09
2023-05-15T08:59:05.591Z,15.16
2023-05-15T09:04:10.145Z,15.31
2023-05-15T09:09:14.090Z,15.41
2023-05-15T09:14:16.948Z,15.53
2023-05-15T09:19:22.571Z,15.58
2023-05-15T09:24:28.386Z,15.63
2023-05-15T09:29:34.061Z,15.64
2023-05-15T09:34:40.170Z,15.61
2023-05-15T09:39:43.740Z,15.65
2023-05-15T09:44:47.624Z,15.58
2023-05-15T09:49:52.234Z,15.45
2023-05-15T09:54:55.394Z,15.44
2023-05-15T10:00:02.457Z,15.47
2023-05-15T10:05:16.748Z,15.58
2023-05-15T10:10:19.644Z,15.68
2023-05-15T10:15:23.651Z,15.82
2023-05-15T10:20:28.311Z,15.93
2023-05-15T10:25:36.877Z,16.04
2023-05-15T10:30:40.139Z,16.18
2023-05-15T10:35:44.441Z,16.30
2023-05-15T10:40:47.958Z,16.45
2023-05-15T10:45:51.959Z,16.58
2023-05-15T10:50:56.214Z,16.41
2023-05-15T10:55:59.196Z,16.43
2023-05-15T11:01:02.355Z,16.41
2023-05-15T11:06:10.816Z,16.27
2023-05-15T11:11:47.038Z,16.51
2023-05-15T11:17:00.634Z,16.84
2023-05-15T11:22:18.685Z,17.23
2023-05-15T11:27:23.318Z,17.43
2023-05-15T11:32:45.968Z,18.16
2023-05-15T11:37:51.814Z,18.59
2023-05-15T11:43:18.961Z,18.63
2023-05-15T11:48:22.017Z,18.77
2023-05-15T11:53:26.687Z,18.63
2023-05-15T11:58:29.674Z,18.44
2023-05-15T12:03:36.182Z,18.34
2023-05-15T12:08:42.235Z,18.37
2023-05-15T12:13:45.117Z,18.46
2023-05-15T12:18:48.755Z,18.74
2023-05-15T12:24:06.452Z,18.80
2023-05-15T12:29:10.550Z,18.38
2023-05-15T12:34:13.421Z,18.26
2023-05-15T12:39:17.718Z,18.11
2023-05-15T12:44:21.004Z,18.22
2023-05-15T12:49:24.442Z,18.20
2023-05-15T12:54:28.573Z,17.80
2023-05-15T12:59:31.482Z,17.74
2023-05-15T13:04:34.353Z,17.79
2023-05-15T13:09:38.725Z,17.53
2023-05-15T13:14:43.385Z,17.17
2023-05-15T13:19:46.342Z,17.15
2023-05-15T13:24:51.833Z,16.92
2023-05-15T13:29:54.686Z,16.75
2023-05-15T13:34:58.720Z,16.48
2023-05-15T13:40:06.260Z,16.30
2023-05-15T13:45:10.461Z,16.41
2023-05-15T13:50:14.482Z,16.38
2023-05-15T13:55:19.763Z,16.41
2023-05-15T14:00:24.468Z,16.56
2023-05-15T14:05:27.493Z,16.73
2023-05-15T14:10:33.210Z,16.94
2023-05-15T14:15:36.165Z,16.77
2023-05-15T14:20:39.122Z,16.92
2023-05-15T14:25:43.553Z,17.02
2023-05-15T14:30:46.436Z,16.77
2023-05-15T14:35:49.256Z,16.71
2023-05-15T14:40:53.560Z,16.54
2023-05-15T14:45:56.424Z,16.64
2023-05-15T14:50:59.374Z,16.37
2023-05-15T14:56:03.556Z,16.54
2023-05-15T15:01:06.579Z,16.50
2023-05-15T15:06:09.667Z,16.66
2023-05-15T15:11:13.931Z,16.63
2023-05-15T15:16:16.812Z,16.29
2023-05-15T15:21:19.762Z,16.43
2023-05-15T15:26:24.105Z,16.57
2023-05-15T15:31:29.701Z,16.55
2023-05-15T15:36:32.759Z,16.49
2023-05-15T15:41:38.592Z,16.15
2023-05-15T15:46:41.658Z,16.03
2023-05-15T15:51:44.554Z,15.98
2023-05-15T15:56:48.990Z,16.05
2023-05-15T16:01:52.275Z,15.75
2023-05-15T16:06:55.265Z,15.38
2023-05-15T16:12:01.479Z,15.11
2023-05-15T16:17:05.327Z,14.95
2023-05-15T16:22:08.336Z,14.85
2023-05-15T16:27:12.672Z,14.63
2023-05-15T16:32:16.169Z,14.48
2023-05-15T16:37:19.036Z,14.42
2023-05-15T16:42:23.252Z,14.35
2023-05-15T16:47:26.188Z,14.32
2023-05-15T16:52:31.861Z,14.32
2023-05-15T16:57:36.190Z,14.26
2023-05-15T17:02:39.063Z,14.27
2023-05-15T17:07:42.649Z,14.19
2023-05-15T17:12:46.939Z,14.21
2023-05-15T17:17:49.786Z,14.11
2023-05-15T17:22:52.708Z,14.11
2023-05-15T17:27:56.931Z,14.12
2023-05-15T17:33:00.588Z,14.09
2023-05-15T17:38:03.514Z,14.06
2023-05-15T17:43:09.779Z,13.94
2023-05-15T17:48:12.862Z,13.85
2023-05-15T17:53:16.285Z,13.72
2023-05-15T17:58:21.261Z,13.55
2023-05-15T18:03:24.329Z,13.37
2023-05-15T18:08:27.167Z,13.12
2023-05-15T18:13:31.369Z,12.93
2023-05-15T18:18:35.396Z,12.84
2023-05-15T18:23:38.296Z,12.77
2023-05-15T18:28:42.551Z,12.72
2023-05-15T18:33:45.743Z,12.63
2023-05-15T18:38:48.651Z,12.66
2023-05-15T18:43:52.804Z,12.55
2023-05-15T18:48:55.580Z,12.65
2023-05-15T18:53:58.425Z,12.59
2023-05-15T18:59:02.765Z,12.52
2023-05-15T19:04:06.556Z,12.46
2023-05-15T19:09:10.478Z,12.37
2023-05-15T19:14:15.673Z,12.40
2023-05-15T19:19:19.036Z,12.45
2023-05-15T19:24:22.342Z,12.43
2023-05-15T19:29:26.523Z,12.36
2023-05-15T19:34:29.514Z,12.27
2023-05-15T19:39:33.671Z,12.23
2023-05-15T19:44:37.922Z,12.25
2023-05-15T19:49:40.782Z,12.25
2023-05-15T19:54:44.221Z,12.15
2023-05-15T19:59:48.428Z,11.99
2023-05-15T20:04:51.458Z,11.89
2023-05-15T20:09:54.351Z,11.80
2023-05-15T20:14:58.569Z,11.71
2023-05-15T20:20:02.226Z,11.70
2023-05-15T20:25:06.309Z,11.64
2023-05-15T20:30:11.713Z,11.60
2023-05-15T20:35:14.573Z,11.59
2023-05-15T20:40:19.609Z,11.59
2023-05-15T20:45:24.571Z,11.50
2023-05-15T20:50:27.813Z,11.50
2023-05-15T20:55:30.878Z,11.48
2023-05-15T21:00:35.205Z,11.47
2023-05-15T21:05:38.193Z,11.40
2023-05-15T21:10:41.049Z,11.39
2023-05-15T21:15:45.321Z,11.32
2023-05-15T21:20:48.128Z,11.27
2023-05-15T21:25:50.990Z,11.19
2023-05-15T21:30:55.161Z,11.15
2023-05-15T21:35:58.039Z,11.10
2023-05-15T21:41:01.328Z,11.08
2023-05-15T21:46:05.616Z,11.02
2023-05-15T21:51:08.604Z,11.00
2023-05-15T21:56:11.521Z,10.93
2023-05-15T22:01:16.314Z,10.91
2023-05-15T22:06:19.217Z,10.86
2023-05-15T22:11:22.068Z,10.82
2023-05-15T22:16:26.394Z,10.79
2023-05-15T22:21:29.302Z,10.75
2023-05-15T22:26:33.160Z,10.73
2023-05-15T22:31:37.400Z,10.73
2023-05-15T22:36:40.239Z,10.64
2023-05-15T22:41:43.096Z,10.65
2023-05-15T22:46:47.240Z,10.63
2023-05-15T22:51:50.107Z,10.57
2023-05-15T22:56:53.500Z,10.53
2023-05-15T23:01:58.032Z,10.50
2023-05-15T23:07:00.848Z,10.48
2023-05-15T23:12:04.338Z,10.46
2023-05-15T23:17:08.606Z,10.37
2023-05-15T23:22:12.747Z,10.34
2023-05-15T23:27:15.556Z,10.27
2023-05-15T23:32:19.775Z,10.22
2023-05-15T23:37:22.712Z,10.13
2023-05-15T23:42:25.582Z,10.16
2023-05-15T23:47:29.788Z,10.08
2023-05-15T23:52:32.901Z,10.06
2023-05-15T23:57:36.141Z,10.04
